Terminal Aerodrome Forecast
Issued by NWS

Home | Current Version | Previous Version | Text Only | Print | Product List | Glossary On
Versions: 1 2 3 4 5 6 7 8 9 10 11 12 13 14 15
000
FTUS43 KDTX 231120
TAFDET
TAF
KDET 231120Z 2312/2412 20005KT P6SM OVC100
     FM231600 23012KT P6SM BKN050 OVC100
     FM240100 20005KT P6SM SCT250=

USA.gov is the U.S. government's official web portal to all federal, state and local government web resources and services.